createdAt,value
2018-05-05T00:02:22.601Z,13.10
2018-05-05T00:04:50.160Z,13.00
2018-05-05T00:07:17.626Z,13.00
2018-05-05T00:09:45.130Z,12.90
2018-05-05T00:12:12.594Z,12.80
2018-05-05T00:14:40.199Z,12.80
2018-05-05T00:17:07.663Z,12.80
2018-05-05T00:19:35.118Z,12.70
2018-05-05T00:22:02.621Z,12.70
2018-05-05T00:24:30.086Z,12.70
2018-05-05T00:26:57.798Z,12.60
2018-05-05T00:29:25.508Z,12.50
2018-05-05T00:31:52.946Z,12.40
2018-05-05T00:34:20.474Z,12.40
2018-05-05T00:36:47.947Z,12.30
2018-05-05T00:39:15.702Z,12.20
2018-05-05T00:41:43.171Z,12.20
2018-05-05T00:44:10.933Z,12.20
2018-05-05T00:46:38.685Z,12.10
2018-05-05T00:49:06.162Z,12.10
2018-05-05T00:51:33.634Z,12.10
2018-05-05T00:54:01.369Z,12.00
2018-05-05T00:56:28.834Z,12.00
2018-05-05T00:58:56.303Z,11.90
2018-05-05T01:01:23.763Z,11.90
2018-05-05T01:03:51.507Z,11.80
2018-05-05T01:06:19.271Z,11.90
2018-05-05T01:08:47.038Z,11.90
2018-05-05T01:11:14.504Z,11.90
2018-05-05T01:13:42.264Z,11.90
2018-05-05T01:16:09.877Z,11.80
2018-05-05T01:18:37.398Z,11.80
2018-05-05T01:21:04.885Z,11.80
2018-05-05T01:23:32.403Z,11.70
2018-05-05T01:25:59.908Z,11.60
2018-05-05T01:28:27.622Z,11.50
2018-05-05T01:30:55.086Z,11.50
2018-05-05T01:33:22.850Z,11.30
2018-05-05T01:35:50.610Z,11.30
2018-05-05T01:38:18.306Z,11.20
2018-05-05T01:40:45.767Z,11.10
2018-05-05T01:43:13.299Z,11.10
2018-05-05T01:45:41.058Z,11.10
2018-05-05T01:48:08.563Z,11.00
2018-05-05T01:50:36.005Z,11.00
2018-05-05T01:53:03.649Z,11.00
2018-05-05T01:55:31.121Z,11.00
2018-05-05T01:57:58.654Z,10.90
2018-05-05T02:00:26.418Z,10.90
2018-05-05T02:02:53.898Z,10.80
2018-05-05T02:05:22.135Z,10.90
2018-05-05T02:07:49.671Z,10.90
2018-05-05T02:10:17.490Z,10.80
2018-05-05T02:12:45.246Z,10.70
2018-05-05T02:15:13.018Z,10.60
2018-05-05T02:17:40.482Z,10.70
2018-05-05T02:20:07.958Z,10.60
2018-05-05T02:22:35.690Z,10.50
2018-05-05T02:25:03.461Z,10.40
2018-05-05T02:27:31.019Z,10.40
2018-05-05T02:29:58.678Z,10.30
2018-05-05T02:32:26.195Z,10.30
2018-05-05T02:34:53.658Z,10.20
2018-05-05T02:37:21.276Z,10.20
2018-05-05T02:39:48.750Z,10.20
2018-05-05T02:42:16.291Z,10.20
2018-05-05T02:44:44.056Z,10.10
2018-05-05T02:47:11.511Z,10.10
2018-05-05T02:49:38.977Z,10.10
2018-05-05T02:52:06.728Z,10.00
2018-05-05T02:54:34.198Z,10.10
2018-05-05T02:57:01.948Z,10.00
2018-05-05T02:59:29.410Z,9.90
2018-05-05T03:01:57.173Z,9.90
2018-05-05T03:04:24.937Z,9.90
2018-05-05T03:06:52.699Z,9.90
2018-05-05T03:09:20.166Z,9.90
2018-05-05T03:11:48.030Z,9.80
2018-05-05T03:14:15.495Z,9.90
2018-05-05T03:16:42.950Z,9.80
2018-05-05T03:19:10.422Z,9.80
2018-05-05T03:21:38.651Z,9.70
2018-05-05T03:24:06.110Z,9.60
2018-05-05T03:26:34.430Z,9.60
2018-05-05T03:29:01.979Z,9.50
2018-05-05T03:31:29.743Z,9.50
2018-05-05T03:33:57.502Z,9.40
2018-05-05T03:36:25.186Z,9.40
2018-05-05T03:38:52.642Z,9.30
2018-05-05T03:41:20.114Z,9.40
2018-05-05T03:43:47.579Z,9.40
2018-05-05T03:46:15.034Z,9.40
2018-05-05T03:48:42.560Z,9.30
2018-05-05T03:51:10.015Z,9.40
2018-05-05T03:53:37.478Z,9.30
2018-05-05T03:56:05.237Z,9.30
2018-05-05T03:58:33.005Z,9.20
2018-05-05T04:01:12.314Z,9.30
2018-05-05T04:03:48.602Z,9.30
2018-05-05T04:06:16.076Z,9.30
2018-05-05T04:08:43.534Z,9.20
2018-05-05T04:11:11.771Z,9.10
2018-05-05T04:13:39.238Z,9.10
2018-05-05T04:16:06.719Z,9.10
2018-05-05T04:18:34.174Z,9.10
2018-05-05T04:21:01.640Z,9.20
2018-05-05T04:23:29.095Z,9.20
2018-05-05T04:25:56.562Z,9.20
2018-05-05T04:28:24.022Z,9.20
2018-05-05T04:30:51.776Z,9.20
2018-05-05T04:33:19.234Z,9.20
2018-05-05T04:35:46.990Z,9.20
2018-05-05T04:38:14.452Z,9.20
2018-05-05T04:40:41.917Z,9.10
2018-05-05T04:43:09.374Z,9.10
2018-05-05T04:45:37.133Z,9.20
2018-05-05T04:48:04.605Z,9.10
2018-05-05T04:50:32.353Z,9.00
2018-05-05T04:52:59.828Z,9.00
2018-05-05T04:55:27.294Z,9.00
2018-05-05T04:57:54.758Z,9.00
2018-05-05T05:00:22.986Z,9.30
2018-05-05T05:02:50.449Z,9.30
2018-05-05T05:05:18.027Z,9.40
2018-05-05T05:07:45.948Z,9.60
2018-05-05T05:10:13.473Z,9.70
2018-05-05T05:12:40.944Z,9.70
2018-05-05T05:15:08.438Z,9.80
2018-05-05T05:17:35.934Z,10.00
2018-05-05T05:20:03.694Z,10.00
2018-05-05T05:22:31.339Z,10.00
2018-05-05T05:24:58.831Z,10.10
2018-05-05T05:27:27.147Z,10.20
2018-05-05T05:29:54.614Z,10.20
2018-05-05T05:32:22.083Z,10.30
2018-05-05T05:34:49.593Z,10.40
2018-05-05T05:37:17.120Z,10.40
2018-05-05T05:39:44.896Z,10.50
2018-05-05T05:42:12.657Z,10.60
2018-05-05T05:44:40.163Z,10.60
2018-05-05T05:47:07.790Z,10.70
2018-05-05T05:49:35.298Z,10.80
2018-05-05T05:52:02.798Z,10.80
2018-05-05T05:54:30.720Z,10.90
2018-05-05T05:56:58.331Z,10.90
2018-05-05T05:59:25.794Z,11.00
2018-05-05T06:01:53.267Z,10.90
2018-05-05T06:04:20.738Z,11.00
2018-05-05T06:06:48.317Z,11.10
2018-05-05T06:09:15.847Z,11.10
2018-05-05T06:11:43.330Z,11.10
2018-05-05T06:14:10.847Z,11.20
2018-05-05T06:16:38.310Z,11.20
2018-05-05T06:19:05.781Z,11.30
2018-05-05T06:21:33.243Z,11.40
2018-05-05T06:24:00.917Z,11.50
2018-05-05T06:26:28.384Z,11.60
2018-05-05T06:28:55.848Z,11.70
2018-05-05T06:31:23.306Z,11.80
2018-05-05T06:33:50.813Z,11.80
2018-05-05T06:36:18.276Z,11.90
2018-05-05T06:38:45.733Z,12.00
2018-05-05T06:41:13.209Z,12.10
2018-05-05T06:43:40.959Z,12.20
2018-05-05T06:46:08.411Z,12.30
2018-05-05T06:48:36.174Z,12.40
2018-05-05T06:51:03.634Z,12.50
2018-05-05T06:53:31.193Z,12.60
2018-05-05T06:55:58.658Z,12.70
2018-05-05T06:58:26.119Z,12.80
2018-05-05T07:00:53.770Z,12.90
2018-05-05T07:03:21.237Z,13.00
2018-05-05T07:05:48.694Z,13.10
2018-05-05T07:08:16.154Z,13.20
2018-05-05T07:10:43.823Z,13.30
2018-05-05T07:13:11.291Z,13.50
2018-05-05T07:15:38.935Z,13.70
2018-05-05T07:18:06.593Z,13.80
2018-05-05T07:20:34.051Z,14.00
2018-05-05T07:23:01.564Z,14.10
2018-05-05T07:25:29.019Z,14.20
2018-05-05T07:27:56.734Z,14.30
2018-05-05T07:30:24.508Z,14.40
2018-05-05T07:32:52.174Z,14.50
2018-05-05T07:35:19.637Z,14.60
2018-05-05T07:37:47.103Z,14.80
2018-05-05T07:40:14.639Z,14.90
2018-05-05T07:42:42.102Z,15.00
2018-05-05T07:45:10.474Z,15.10
2018-05-05T07:47:37.939Z,15.20
2018-05-05T07:50:05.408Z,15.40
2018-05-05T07:52:32.870Z,15.50
2018-05-05T07:55:00.593Z,15.70
2018-05-05T07:57:28.075Z,15.90
2018-05-05T07:59:55.590Z,16.10
2018-05-05T08:02:23.067Z,16.40
2018-05-05T08:04:50.530Z,16.70
2018-05-05T08:07:18.130Z,17.00
2018-05-05T08:09:46.597Z,17.70
2018-05-05T08:12:14.268Z,17.70
2018-05-05T08:14:42.502Z,18.30
2018-05-05T08:17:10.206Z,18.30
2018-05-05T08:19:37.959Z,18.70
2018-05-05T08:22:05.418Z,19.10
2018-05-05T08:24:34.393Z,19.90
2018-05-05T08:27:01.870Z,19.90
2018-05-05T08:29:30.842Z,20.60
2018-05-05T08:31:58.322Z,20.60
2018-05-05T08:34:27.287Z,21.50
2018-05-05T08:36:54.778Z,21.50
2018-05-05T08:39:22.362Z,21.90
2018-05-05T08:41:50.613Z,22.80
2018-05-05T08:44:18.079Z,22.70
2018-05-05T08:46:45.758Z,22.80
2018-05-05T08:49:13.298Z,23.40
2018-05-05T08:51:40.760Z,24.40
2018-05-05T08:54:08.211Z,25.10
2018-05-05T08:56:35.702Z,25.70
2018-05-05T08:59:03.159Z,26.30
2018-05-05T09:01:30.610Z,27.00
2018-05-05T09:03:58.075Z,27.80
2018-05-05T09:06:25.530Z,28.30
2018-05-05T09:08:53.574Z,28.60
2018-05-05T09:11:21.030Z,29.00
2018-05-05T09:13:48.488Z,29.00
2018-05-05T09:16:15.946Z,29.10
2018-05-05T09:18:43.406Z,28.60
2018-05-05T09:21:10.870Z,27.70
2018-05-05T09:23:38.479Z,26.20
2018-05-05T09:26:06.086Z,26.20
2018-05-05T09:28:33.542Z,26.90
2018-05-05T09:31:01.316Z,27.40
2018-05-05T09:33:29.079Z,28.00
2018-05-05T09:35:56.539Z,28.40
2018-05-05T09:38:23.995Z,28.20
2018-05-05T09:40:51.458Z,28.20
2018-05-05T09:43:19.215Z,28.50
2018-05-05T09:45:46.674Z,29.80
2018-05-05T09:48:14.139Z,30.10
2018-05-05T09:50:41.604Z,29.10
2018-05-05T09:53:09.279Z,28.90
2018-05-05T09:55:36.775Z,29.10
2018-05-05T09:58:04.204Z,30.40
2018-05-05T10:00:31.673Z,31.20
2018-05-05T10:02:59.192Z,31.50
2018-05-05T10:05:26.687Z,31.40
2018-05-05T10:07:54.415Z,31.90
2018-05-05T10:10:21.870Z,32.80
2018-05-05T10:12:49.329Z,32.90
2018-05-05T10:15:16.799Z,32.40
2018-05-05T10:17:44.458Z,32.00
2018-05-05T10:20:11.914Z,31.20
2018-05-05T10:22:39.387Z,29.90
2018-05-05T10:25:06.925Z,29.90
2018-05-05T10:27:34.387Z,30.30
2018-05-05T10:30:01.847Z,31.40
2018-05-05T10:32:29.314Z,32.20
2018-05-05T10:34:57.221Z,32.10
2018-05-05T10:37:24.762Z,32.60
2018-05-05T10:39:52.227Z,33.40
2018-05-05T10:42:19.698Z,33.60
2018-05-05T10:44:47.171Z,33.30
2018-05-05T10:47:14.645Z,33.40
2018-05-05T10:49:42.187Z,33.80
2018-05-05T10:52:09.650Z,34.30
2018-05-05T10:54:37.103Z,34.90
2018-05-05T10:57:04.578Z,34.80
2018-05-05T10:59:32.167Z,35.20
2018-05-05T11:01:59.723Z,35.50
2018-05-05T11:04:27.479Z,34.00
2018-05-05T11:06:55.171Z,33.40
2018-05-05T11:09:22.627Z,33.90
2018-05-05T11:11:50.161Z,35.30
2018-05-05T11:14:17.626Z,36.10
2018-05-05T11:16:46.610Z,37.30
2018-05-05T11:19:14.374Z,37.30
2018-05-05T11:21:42.149Z,36.10
2018-05-05T11:24:09.906Z,36.60
2018-05-05T11:26:37.669Z,36.70
2018-05-05T11:29:05.131Z,36.90
2018-05-05T11:31:32.598Z,36.40
2018-05-05T11:34:01.823Z,36.30
2018-05-05T11:36:29.350Z,36.30
2018-05-05T11:38:58.317Z,37.30
2018-05-05T11:41:25.802Z,37.30
2018-05-05T11:43:55.091Z,37.50
2018-05-05T11:46:22.545Z,37.50
2018-05-05T11:48:50.023Z,38.70
2018-05-05T11:51:19.019Z,37.60
2018-05-05T11:53:47.306Z,37.30
2018-05-05T11:56:14.792Z,37.30
2018-05-05T11:58:42.231Z,37.00
2018-05-05T12:01:09.707Z,37.90
2018-05-05T12:03:37.226Z,38.40
2018-05-05T12:06:04.707Z,38.50
2018-05-05T12:08:32.410Z,39.40
2018-05-05T12:10:59.906Z,37.50
2018-05-05T12:13:27.391Z,37.10
2018-05-05T12:15:55.127Z,37.10
2018-05-05T12:18:24.126Z,36.90
2018-05-05T12:20:53.124Z,37.50
2018-05-05T12:23:21.041Z,37.50
2018-05-05T12:25:48.651Z,38.20
2018-05-05T12:28:17.627Z,37.90
2018-05-05T12:30:45.074Z,37.90
2018-05-05T12:33:12.530Z,36.80
2018-05-05T12:35:39.994Z,36.10
2018-05-05T12:38:07.474Z,37.10
2018-05-05T12:40:36.438Z,38.20
2018-05-05T12:43:03.926Z,38.20
2018-05-05T12:45:31.397Z,38.60
2018-05-05T12:47:58.859Z,38.70
2018-05-05T12:50:26.310Z,39.20
2018-05-05T12:52:53.779Z,38.40
2018-05-05T12:55:22.134Z,35.70
2018-05-05T12:57:51.769Z,36.50
2018-05-05T13:00:19.422Z,36.50
2018-05-05T13:02:46.970Z,37.10
2018-05-05T13:05:15.934Z,38.50
2018-05-05T13:07:43.398Z,38.50
2018-05-05T13:10:10.860Z,38.10
2018-05-05T13:12:38.335Z,38.30
2018-05-05T13:15:07.307Z,37.60
2018-05-05T13:17:34.793Z,37.70
2018-05-05T13:20:02.260Z,38.70
2018-05-05T13:22:29.711Z,38.70
2018-05-05T13:24:57.174Z,37.90
2018-05-05T13:27:24.630Z,38.10
2018-05-05T13:29:52.097Z,38.50
2018-05-05T13:32:19.696Z,38.90
2018-05-05T13:34:47.205Z,38.90
2018-05-05T13:37:14.678Z,38.70
2018-05-05T13:39:42.222Z,38.60
2018-05-05T13:42:09.678Z,38.60
2018-05-05T13:44:37.135Z,38.90
2018-05-05T13:47:05.059Z,38.70
2018-05-05T13:49:32.610Z,39.30
2018-05-05T13:52:00.114Z,40.10
2018-05-05T13:54:27.566Z,41.00
2018-05-05T13:56:55.027Z,41.20
2018-05-05T13:59:22.805Z,40.70
2018-05-05T14:01:50.267Z,39.80
2018-05-05T14:04:18.031Z,39.80
2018-05-05T14:06:45.801Z,40.30
2018-05-05T14:09:13.259Z,40.00
2018-05-05T14:11:41.023Z,39.00
2018-05-05T14:14:08.786Z,39.10
2018-05-05T14:16:36.243Z,38.90
2018-05-05T14:19:03.790Z,39.20
2018-05-05T14:21:31.193Z,39.30
2018-05-05T14:23:58.922Z,39.30
2018-05-05T14:26:26.688Z,39.10
2018-05-05T14:28:54.451Z,38.90
2018-05-05T14:31:23.445Z,38.00
2018-05-05T14:33:50.899Z,37.90
2018-05-05T14:36:19.882Z,37.70
2018-05-05T14:38:47.360Z,37.70
2018-05-05T14:41:14.820Z,37.60
2018-05-05T14:43:42.282Z,37.30
2018-05-05T14:46:10.042Z,37.30
2018-05-05T14:48:39.023Z,37.10
2018-05-05T14:51:06.490Z,37.10
2018-05-05T14:53:33.955Z,37.60
2018-05-05T14:56:02.929Z,37.50
2018-05-05T14:58:30.422Z,37.50
2018-05-05T15:00:57.912Z,37.60
2018-05-05T15:03:25.539Z,37.10
2018-05-05T15:05:52.998Z,37.00
2018-05-05T15:08:20.457Z,36.70
2018-05-05T15:10:48.918Z,36.80
2018-05-05T15:13:17.886Z,36.40
2018-05-05T15:15:45.344Z,36.40
2018-05-05T15:18:12.810Z,35.50
2018-05-05T15:20:40.267Z,35.10
2018-05-05T15:23:07.738Z,35.50
2018-05-05T15:25:35.194Z,35.40
2018-05-05T15:28:02.663Z,34.70
2018-05-05T15:30:30.122Z,33.70
2018-05-05T15:32:57.583Z,32.20
2018-05-05T15:35:25.047Z,31.00
2018-05-05T15:37:52.594Z,29.90
2018-05-05T15:40:20.100Z,29.20
2018-05-05T15:42:47.714Z,28.80
2018-05-05T15:45:15.482Z,28.30
2018-05-05T15:47:43.245Z,28.00
2018-05-05T15:50:10.707Z,27.60
2018-05-05T15:52:38.178Z,27.30
2018-05-05T15:55:05.638Z,26.80
2018-05-05T15:57:33.387Z,26.40
2018-05-05T16:00:00.855Z,26.50
2018-05-05T16:02:28.339Z,26.40
2018-05-05T16:04:55.871Z,26.20
2018-05-05T16:07:23.690Z,26.10
2018-05-05T16:09:51.264Z,26.10
2018-05-05T16:12:19.587Z,26.10
2018-05-05T16:14:47.970Z,25.80
2018-05-05T16:17:15.451Z,25.70
2018-05-05T16:19:42.973Z,25.70
2018-05-05T16:22:10.891Z,25.70
2018-05-05T16:24:38.358Z,25.60
2018-05-05T16:27:05.908Z,25.50
2018-05-05T16:29:33.391Z,25.50
2018-05-05T16:32:00.878Z,25.30
2018-05-05T16:34:28.338Z,25.30
2018-05-05T16:36:55.797Z,25.20
2018-05-05T16:39:23.463Z,25.10
2018-05-05T16:41:50.942Z,25.00
2018-05-05T16:44:18.471Z,24.90
2018-05-05T16:46:46.233Z,24.90
2018-05-05T16:49:14.002Z,24.80
2018-05-05T16:51:41.682Z,24.60
2018-05-05T16:54:09.221Z,24.50
2018-05-05T16:56:36.687Z,24.20
2018-05-05T16:59:04.158Z,24.10
2018-05-05T17:01:31.617Z,24.10
2018-05-05T17:03:59.074Z,24.10
2018-05-05T17:06:26.755Z,24.10
2018-05-05T17:08:54.229Z,24.10
2018-05-05T17:11:21.673Z,24.10
2018-05-05T17:13:49.141Z,24.00
2018-05-05T17:16:16.809Z,23.90
2018-05-05T17:18:44.414Z,23.70
2018-05-05T17:21:11.871Z,23.80
2018-05-05T17:23:39.329Z,23.80
2018-05-05T17:26:06.806Z,23.80
2018-05-05T17:28:34.475Z,23.80
2018-05-05T17:31:02.014Z,23.90
2018-05-05T17:33:29.479Z,24.30
2018-05-05T17:35:56.958Z,24.70
2018-05-05T17:38:24.699Z,24.90
2018-05-05T17:40:52.378Z,24.60
2018-05-05T17:43:21.026Z,24.10
2018-05-05T17:45:48.518Z,24.10
2018-05-05T17:48:16.062Z,23.80
2018-05-05T17:50:43.538Z,23.60
2018-05-05T17:53:11.286Z,23.40
2018-05-05T17:55:39.050Z,23.30
2018-05-05T17:58:06.514Z,23.10
2018-05-05T18:00:34.185Z,23.00
2018-05-05T18:03:01.891Z,22.80
2018-05-05T18:05:29.500Z,22.80
2018-05-05T18:07:56.958Z,22.70
2018-05-05T18:10:24.429Z,22.70
2018-05-05T18:12:51.882Z,22.60
2018-05-05T18:15:19.355Z,22.60
2018-05-05T18:17:46.910Z,22.50
2018-05-05T18:20:15.134Z,22.20
2018-05-05T18:22:42.628Z,22.20
2018-05-05T18:25:10.090Z,22.10
2018-05-05T18:27:37.706Z,22.10
2018-05-05T18:30:05.167Z,22.10
2018-05-05T18:32:32.712Z,22.10
2018-05-05T18:35:00.166Z,22.10
2018-05-05T18:37:27.827Z,22.00
2018-05-05T18:39:55.274Z,21.90
2018-05-05T18:42:23.495Z,21.70
2018-05-05T18:44:50.958Z,21.70
2018-05-05T18:47:18.424Z,21.60
2018-05-05T18:49:46.202Z,21.50
2018-05-05T18:52:13.659Z,21.30
2018-05-05T18:54:41.126Z,21.20
2018-05-05T18:57:08.881Z,21.10
2018-05-05T18:59:37.850Z,20.90
2018-05-05T19:02:05.311Z,20.90
2018-05-05T19:04:32.950Z,20.90
2018-05-05T19:07:00.407Z,20.80
2018-05-05T19:09:28.018Z,20.80
2018-05-05T19:11:55.592Z,20.70
2018-05-05T19:14:23.054Z,20.60
2018-05-05T19:16:51.310Z,20.40
2018-05-05T19:19:20.286Z,20.30
2018-05-05T19:21:47.766Z,20.30
2018-05-05T19:24:15.230Z,20.20
2018-05-05T19:26:42.735Z,20.10
2018-05-05T19:29:10.451Z,20.00
2018-05-05T19:31:37.962Z,20.00
2018-05-05T19:34:05.434Z,19.90
2018-05-05T19:36:32.882Z,19.80
2018-05-05T19:39:00.342Z,19.80
2018-05-05T19:41:27.809Z,19.70
2018-05-05T19:43:55.270Z,19.70
2018-05-05T19:46:22.967Z,19.70
2018-05-05T19:48:50.431Z,19.60
2018-05-05T19:51:19.398Z,19.40
2018-05-05T19:53:46.851Z,19.40
2018-05-05T19:56:14.302Z,19.40
2018-05-05T19:58:41.800Z,19.30
2018-05-05T20:01:09.550Z,19.20
2018-05-05T20:03:38.542Z,19.10
2018-05-05T20:06:06.019Z,19.10
2018-05-05T20:08:33.547Z,19.10
2018-05-05T20:11:01.003Z,19.00
2018-05-05T20:13:28.467Z,19.00
2018-05-05T20:15:55.952Z,18.90
2018-05-05T20:18:23.594Z,18.80
2018-05-05T20:20:51.069Z,18.60
2018-05-05T20:23:19.335Z,18.60
2018-05-05T20:25:46.804Z,18.50
2018-05-05T20:28:14.266Z,18.50
2018-05-05T20:30:41.736Z,18.50
2018-05-05T20:33:09.277Z,18.40
2018-05-05T20:35:38.242Z,18.30
2018-05-05T20:38:05.707Z,18.30
2018-05-05T20:40:33.159Z,18.30
2018-05-05T20:43:00.622Z,18.30
2018-05-05T20:45:28.094Z,18.20
2018-05-05T20:47:57.406Z,18.10
2018-05-05T20:50:24.862Z,18.10
2018-05-05T20:52:53.818Z,17.90
2018-05-05T20:55:21.289Z,17.80
2018-05-05T20:57:48.763Z,17.80
2018-05-05T21:00:16.270Z,17.70
2018-05-05T21:02:45.202Z,17.60
2018-05-05T21:05:12.658Z,17.60
2018-05-05T21:07:40.130Z,17.60
2018-05-05T21:10:07.808Z,17.50
2018-05-05T21:12:35.266Z,17.50
2018-05-05T21:15:02.810Z,17.40
2018-05-05T21:17:30.266Z,17.40
2018-05-05T21:19:57.715Z,17.30
2018-05-05T21:22:25.177Z,17.20
2018-05-05T21:24:52.630Z,17.10
2018-05-05T21:27:20.410Z,17.10
2018-05-05T21:29:47.871Z,17.00
2018-05-05T21:32:16.864Z,17.00
2018-05-05T21:34:44.633Z,17.00
2018-05-05T21:37:12.093Z,17.00
2018-05-05T21:39:40.466Z,17.00
2018-05-05T21:42:07.931Z,17.00
2018-05-05T21:44:36.914Z,16.90
2018-05-05T21:47:04.597Z,16.80
2018-05-05T21:49:32.297Z,16.80
2018-05-05T21:51:59.902Z,16.80
2018-05-05T21:54:27.378Z,16.70
2018-05-05T21:56:55.745Z,16.70
2018-05-05T21:59:23.201Z,16.70
2018-05-05T22:01:50.678Z,16.60
2018-05-05T22:04:18.139Z,16.60
2018-05-05T22:06:45.615Z,16.50
2018-05-05T22:09:13.262Z,16.50
2018-05-05T22:11:40.724Z,16.40
2018-05-05T22:14:08.190Z,16.30
2018-05-05T22:16:35.654Z,16.20
2018-05-05T22:19:03.321Z,16.10
2018-05-05T22:21:30.784Z,16.00
2018-05-05T22:23:58.393Z,16.00
2018-05-05T22:26:26.013Z,16.00
2018-05-05T22:28:53.533Z,15.90
2018-05-05T22:31:21.010Z,15.80
2018-05-05T22:33:48.559Z,15.80
2018-05-05T22:36:15.998Z,15.80
2018-05-05T22:38:43.681Z,15.70
2018-05-05T22:41:11.143Z,15.60
2018-05-05T22:43:38.632Z,15.60
2018-05-05T22:46:06.087Z,15.60
2018-05-05T22:48:33.590Z,15.50
2018-05-05T22:51:01.363Z,15.50
2018-05-05T22:53:29.278Z,15.50
2018-05-05T22:55:56.802Z,15.50
2018-05-05T22:58:24.345Z,15.50
2018-05-05T23:00:51.814Z,15.50
2018-05-05T23:03:19.274Z,15.40
2018-05-05T23:05:47.517Z,15.40
2018-05-05T23:08:15.102Z,15.40
2018-05-05T23:10:42.870Z,15.30
2018-05-05T23:13:10.416Z,15.40
2018-05-05T23:15:38.014Z,15.30
2018-05-05T23:18:05.470Z,15.30
2018-05-05T23:20:33.006Z,15.20
2018-05-05T23:23:00.479Z,15.10
2018-05-05T23:25:28.134Z,15.10
2018-05-05T23:27:55.682Z,15.10
2018-05-05T23:30:23.446Z,15.00
2018-05-05T23:32:51.171Z,15.00
2018-05-05T23:35:19.594Z,15.00
2018-05-05T23:37:47.266Z,15.00
2018-05-05T23:40:14.822Z,15.00
2018-05-05T23:42:42.489Z,15.00
2018-05-05T23:45:10.043Z,15.00
2018-05-05T23:47:37.518Z,15.00
2018-05-05T23:50:04.983Z,14.80
2018-05-05T23:52:32.442Z,14.70
2018-05-05T23:55:00.179Z,14.60
2018-05-05T23:57:27.638Z,14.40
2018-05-05T23:59:55.106Z,14.40
